This is the latest recevied weather packets stored in our database for station/object HF6UWU. If no packets are shown the sender has not sent any weather packets the latest 10 day(s).
| Time | Temp. | Humidity | Pressure | Rain* | Wind** | Luminosity | Snow |
|---|---|---|---|---|---|---|---|
| 1788489375 | 17.78° C | 78% | 1004.2 hPa | 0 mm | - | 0 W/m² | - |
| 1788485075 | 17.78° C | 77% | 1004.5 hPa | 0 mm | - | 0 W/m² | - |
| 1788480175 | 17.78° C | 78% | 1004.7 hPa | 0 mm | - | 0 W/m² | - |
| 1788479561 | 17.78° C | 77% | 1004.7 hPa | 0 mm | - | 0 W/m² | - |
| 1788473397 | 17.78° C | 76% | 1005.2 hPa | 0 mm | - | 0 W/m² | - |
| 1788470952 | 18.89° C | 73% | 1005.1 hPa | 0 mm | - | 0 W/m² | - |
| 1788470349 | 18.89° C | 72% | 1005.1 hPa | 0 mm | - | 0 W/m² | - |
| 1788469739 | 18.89° C | 71% | 1005 hPa | 0 mm | - | 0 W/m² | - |
| 1788467286 | 19.44° C | 68% | 1005 hPa | 0 mm | - | 0 W/m² | - |
| 1788466050 | 20° C | 66% | 1004.9 hPa | 0 mm | - | 0 W/m² | - |
| 1788450749 | 22.22° C | 51% | 1005.3 hPa | 0 mm | - | 126 W/m² | - |
| 1788445248 | 21.67° C | 50% | 1006 hPa | 0 mm | - | 172 W/m² | - |
| 1788444018 | 21.67° C | 48% | 1006.3 hPa | 0 mm | - | 213 W/m² | - |
| 1788443397 | 21.67° C | 47% | 1006.4 hPa | 0 mm | - | 244 W/m² | - |
| 1788441547 | 22.22° C | 51% | 1006.5 hPa | 0 mm | - | 298 W/m² | - |
| 1788440936 | 22.22° C | 51% | 1006.7 hPa | 0 mm | - | 299 W/m² | - |
| 1788440323 | 22.22° C | 49% | 1006.7 hPa | 0 mm | - | 377 W/m² | - |
| 1788436035 | 21.67° C | 48% | 1007.2 hPa | 0 mm | - | 561 W/m² | - |
| 1788434209 | 21.67° C | 53% | 1007.4 hPa | 0 mm | - | 338 W/m² | - |
| 1788433600 | 21.11° C | 54% | 1007.5 hPa | 0 mm | - | 353 W/m² | - |
| 1788432372 | 21.11° C | 55% | 1007.8 hPa | 0 mm | - | 369 W/m² | - |
| 1788431761 | 21.11° C | 56% | 1007.9 hPa | 0 mm | - | 419 W/m² | - |
| 1788431160 | 21.11° C | 54% | 1007.9 hPa | 0 mm | - | 389 W/m² | - |
| 1788429927 | 21.11° C | 55% | 1008 hPa | 0 mm | - | 402 W/m² | - |
| 1788429324 | 20.56° C | 57% | 1008.1 hPa | 0 mm | - | 442 W/m² | - |
* Rain latest hour (hover to see other rain measurements)
** Current wind speed in m/s (hover to see current wind gust speed)